sensor_id;sensor_type;location;lat;lon;timestamp;temperature;humidity
42147;DHT22;27815;43.410;11.852;2022-09-03T00:02:38;21.10;62.90
42147;DHT22;27815;43.410;11.852;2022-09-03T00:06:47;21.10;61.90
42147;DHT22;27815;43.410;11.852;2022-09-03T00:15:23;21.10;64.20
42147;DHT22;27815;43.410;11.852;2022-09-03T00:19:31;21.10;63.00
42147;DHT22;27815;43.410;11.852;2022-09-03T00:23:41;21.10;64.60
42147;DHT22;27815;43.410;11.852;2022-09-03T00:27:48;21.10;64.30
42147;DHT22;27815;43.410;11.852;2022-09-03T00:32:02;21.00;64.60
42147;DHT22;27815;43.410;11.852;2022-09-03T00:36:20;20.90;64.80
42147;DHT22;27815;43.410;11.852;2022-09-03T00:40:53;20.80;64.80
42147;DHT22;27815;43.410;11.852;2022-09-03T01:10:51;20.80;66.00
42147;DHT22;27815;43.410;11.852;2022-09-03T01:46:25;20.60;66.30
42147;DHT22;27815;43.410;11.852;2022-09-03T02:03:38;20.60;66.80
42147;DHT22;27815;43.410;11.852;2022-09-03T02:07:48;20.60;66.70
42147;DHT22;27815;43.410;11.852;2022-09-03T02:11:59;20.60;67.00
42147;DHT22;27815;43.410;11.852;2022-09-03T02:16:14;20.60;67.00
42147;DHT22;27815;43.410;11.852;2022-09-03T02:20:26;20.60;66.90
42147;DHT22;27815;43.410;11.852;2022-09-03T02:24:30;20.60;66.90
42147;DHT22;27815;43.410;11.852;2022-09-03T02:28:34;20.50;66.70
42147;DHT22;27815;43.410;11.852;2022-09-03T02:32:36;20.50;66.90
42147;DHT22;27815;43.410;11.852;2022-09-03T02:36:46;20.50;66.90
42147;DHT22;27815;43.410;11.852;2022-09-03T02:40:53;20.40;66.90
42147;DHT22;27815;43.410;11.852;2022-09-03T02:45:22;20.30;67.10
42147;DHT22;27815;43.410;11.852;2022-09-03T02:49:26;20.30;67.50
42147;DHT22;27815;43.410;11.852;2022-09-03T02:53:30;20.20;67.30
42147;DHT22;27815;43.410;11.852;2022-09-03T02:57:35;20.10;67.60
42147;DHT22;27815;43.410;11.852;2022-09-03T03:01:42;20.10;67.80
42147;DHT22;27815;43.410;11.852;2022-09-03T03:05:53;20.00;68.00
42147;DHT22;27815;43.410;11.852;2022-09-03T03:10:00;19.90;68.40
42147;DHT22;27815;43.410;11.852;2022-09-03T03:14:03;19.80;68.50
42147;DHT22;27815;43.410;11.852;2022-09-03T03:18:09;19.80;68.60
42147;DHT22;27815;43.410;11.852;2022-09-03T03:22:15;19.80;68.70
42147;DHT22;27815;43.410;11.852;2022-09-03T03:26:19;19.80;68.70
42147;DHT22;27815;43.410;11.852;2022-09-03T03:30:24;19.80;68.80
42147;DHT22;27815;43.410;11.852;2022-09-03T03:34:27;19.80;68.50
42147;DHT22;27815;43.410;11.852;2022-09-03T03:38:30;19.80;68.90
42147;DHT22;27815;43.410;11.852;2022-09-03T03:42:33;19.70;68.90
42147;DHT22;27815;43.410;11.852;2022-09-03T03:46:39;19.70;69.10
42147;DHT22;27815;43.410;11.852;2022-09-03T03:50:42;19.60;69.40
42147;DHT22;27815;43.410;11.852;2022-09-03T03:54:48;19.50;69.80
42147;DHT22;27815;43.410;11.852;2022-09-03T03:58:54;19.50;69.80
42147;DHT22;27815;43.410;11.852;2022-09-03T04:02:58;19.50;69.80
42147;DHT22;27815;43.410;11.852;2022-09-03T04:07:02;19.50;70.50
42147;DHT22;27815;43.410;11.852;2022-09-03T04:11:07;19.50;70.40
42147;DHT22;27815;43.410;11.852;2022-09-03T04:15:11;19.40;70.60
42147;DHT22;27815;43.410;11.852;2022-09-03T04:19:14;19.40;70.60
42147;DHT22;27815;43.410;11.852;2022-09-03T04:23:17;19.30;70.80
42147;DHT22;27815;43.410;11.852;2022-09-03T04:27:21;19.30;70.80
42147;DHT22;27815;43.410;11.852;2022-09-03T04:31:27;19.40;70.80
42147;DHT22;27815;43.410;11.852;2022-09-03T04:35:33;19.40;70.60
42147;DHT22;27815;43.410;11.852;2022-09-03T04:39:44;19.40;70.60
42147;DHT22;27815;43.410;11.852;2022-09-03T04:43:50;19.40;70.70
42147;DHT22;27815;43.410;11.852;2022-09-03T04:51:59;19.30;71.30
42147;DHT22;27815;43.410;11.852;2022-09-03T04:56:10;19.40;71.30
42147;DHT22;27815;43.410;11.852;2022-09-03T05:00:21;19.50;71.30
42147;DHT22;27815;43.410;11.852;2022-09-03T05:04:24;19.50;71.30
42147;DHT22;27815;43.410;11.852;2022-09-03T05:08:27;19.50;71.50
42147;DHT22;27815;43.410;11.852;2022-09-03T05:12:56;19.60;71.60
42147;DHT22;27815;43.410;11.852;2022-09-03T05:17:02;19.70;71.40
42147;DHT22;27815;43.410;11.852;2022-09-03T05:21:09;19.70;71.40
42147;DHT22;27815;43.410;11.852;2022-09-03T05:25:13;19.80;71.90
42147;DHT22;27815;43.410;11.852;2022-09-03T05:29:16;19.90;71.60
42147;DHT22;27815;43.410;11.852;2022-09-03T05:33:22;20.00;71.20
42147;DHT22;27815;43.410;11.852;2022-09-03T05:37:47;20.00;71.00
42147;DHT22;27815;43.410;11.852;2022-09-03T05:42:34;20.10;71.00
42147;DHT22;27815;43.410;11.852;2022-09-03T05:46:39;20.30;71.00
42147;DHT22;27815;43.410;11.852;2022-09-03T05:50:41;20.30;69.10
42147;DHT22;27815;43.410;11.852;2022-09-03T05:54:44;20.40;71.00
42147;DHT22;27815;43.410;11.852;2022-09-03T05:59:06;20.50;71.10
42147;DHT22;27815;43.410;11.852;2022-09-03T06:03:11;20.50;70.80
42147;DHT22;27815;43.410;11.852;2022-09-03T06:07:16;20.60;70.10
42147;DHT22;27815;43.410;11.852;2022-09-03T06:11:24;20.80;69.90
42147;DHT22;27815;43.410;11.852;2022-09-03T06:15:30;21.00;70.10
42147;DHT22;27815;43.410;11.852;2022-09-03T06:19:34;21.10;69.30
42147;DHT22;27815;43.410;11.852;2022-09-03T06:23:40;21.10;69.50
42147;DHT22;27815;43.410;11.852;2022-09-03T06:27:48;21.20;69.30
42147;DHT22;27815;43.410;11.852;2022-09-03T06:31:53;21.50;68.70
42147;DHT22;27815;43.410;11.852;2022-09-03T06:36:00;21.50;67.80
42147;DHT22;27815;43.410;11.852;2022-09-03T06:40:10;21.50;67.80
42147;DHT22;27815;43.410;11.852;2022-09-03T06:44:29;21.40;68.10
42147;DHT22;27815;43.410;11.852;2022-09-03T06:48:35;21.40;68.20
42147;DHT22;27815;43.410;11.852;2022-09-03T06:52:41;21.30;68.30
42147;DHT22;27815;43.410;11.852;2022-09-03T06:56:44;21.20;69.00
42147;DHT22;27815;43.410;11.852;2022-09-03T07:00:48;21.20;69.40
42147;DHT22;27815;43.410;11.852;2022-09-03T07:04:52;21.20;69.60
42147;DHT22;27815;43.410;11.852;2022-09-03T07:08:56;21.20;69.50
42147;DHT22;27815;43.410;11.852;2022-09-03T07:13:01;21.20;69.50
42147;DHT22;27815;43.410;11.852;2022-09-03T07:17:04;21.20;69.60
42147;DHT22;27815;43.410;11.852;2022-09-03T07:21:10;21.30;69.10
42147;DHT22;27815;43.410;11.852;2022-09-03T07:25:14;21.30;69.10
42147;DHT22;27815;43.410;11.852;2022-09-03T07:29:19;21.30;69.20
42147;DHT22;27815;43.410;11.852;2022-09-03T07:33:23;21.30;69.20
42147;DHT22;27815;43.410;11.852;2022-09-03T07:37:26;21.40;68.80
42147;DHT22;27815;43.410;11.852;2022-09-03T07:41:29;21.50;68.80
42147;DHT22;27815;43.410;11.852;2022-09-03T07:45:34;21.60;68.80
42147;DHT22;27815;43.410;11.852;2022-09-03T07:49:38;21.50;68.60
42147;DHT22;27815;43.410;11.852;2022-09-03T07:53:42;21.70;68.70
42147;DHT22;27815;43.410;11.852;2022-09-03T07:57:44;21.60;68.60
42147;DHT22;27815;43.410;11.852;2022-09-03T08:01:47;21.70;68.60
42147;DHT22;27815;43.410;11.852;2022-09-03T08:05:50;21.80;68.50
42147;DHT22;27815;43.410;11.852;2022-09-03T08:09:55;21.80;68.40
42147;DHT22;27815;43.410;11.852;2022-09-03T08:14:03;21.80;68.50
42147;DHT22;27815;43.410;11.852;2022-09-03T08:18:08;21.70;68.50
42147;DHT22;27815;43.410;11.852;2022-09-03T08:22:12;21.70;68.50
42147;DHT22;27815;43.410;11.852;2022-09-03T08:26:17;21.70;68.40
42147;DHT22;27815;43.410;11.852;2022-09-03T08:30:20;21.70;68.50
42147;DHT22;27815;43.410;11.852;2022-09-03T08:34:25;21.70;68.50
42147;DHT22;27815;43.410;11.852;2022-09-03T08:38:28;21.80;68.60
42147;DHT22;27815;43.410;11.852;2022-09-03T08:51:02;21.90;69.00
42147;DHT22;27815;43.410;11.852;2022-09-03T08:59:10;21.60;70.80
42147;DHT22;27815;43.410;11.852;2022-09-03T09:07:56;21.50;71.90
42147;DHT22;27815;43.410;11.852;2022-09-03T09:12:35;21.50;71.50
42147;DHT22;27815;43.410;11.852;2022-09-03T09:21:26;21.70;71.50
42147;DHT22;27815;43.410;11.852;2022-09-03T09:25:32;21.80;70.60
42147;DHT22;27815;43.410;11.852;2022-09-03T09:29:48;21.80;71.10
42147;DHT22;27815;43.410;11.852;2022-09-03T09:33:53;21.80;71.80
42147;DHT22;27815;43.410;11.852;2022-09-03T09:37:57;21.80;71.00
42147;DHT22;27815;43.410;11.852;2022-09-03T09:42:10;21.90;71.50
42147;DHT22;27815;43.410;11.852;2022-09-03T09:46:19;22.00;71.40
42147;DHT22;27815;43.410;11.852;2022-09-03T09:50:22;22.00;70.80
42147;DHT22;27815;43.410;11.852;2022-09-03T09:54:28;22.00;70.90
42147;DHT22;27815;43.410;11.852;2022-09-03T09:58:34;22.00;70.50
42147;DHT22;27815;43.410;11.852;2022-09-03T10:02:49;22.10;70.90
42147;DHT22;27815;43.410;11.852;2022-09-03T10:07:26;22.10;70.70
42147;DHT22;27815;43.410;11.852;2022-09-03T10:11:25;22.00;70.90
42147;DHT22;27815;43.410;11.852;2022-09-03T10:16:07;22.00;71.20
42147;DHT22;27815;43.410;11.852;2022-09-03T10:20:37;22.20;70.70
42147;DHT22;27815;43.410;11.852;2022-09-03T10:24:58;22.20;70.30
42147;DHT22;27815;43.410;11.852;2022-09-03T10:29:06;22.20;71.00
42147;DHT22;27815;43.410;11.852;2022-09-03T10:41:47;22.30;71.20
42147;DHT22;27815;43.410;11.852;2022-09-03T10:46:04;22.20;71.50
42147;DHT22;27815;43.410;11.852;2022-09-03T10:50:19;22.20;71.40
42147;DHT22;27815;43.410;11.852;2022-09-03T10:54:56;22.10;72.00
42147;DHT22;27815;43.410;11.852;2022-09-03T10:59:05;22.20;71.70
42147;DHT22;27815;43.410;11.852;2022-09-03T11:03:52;22.20;71.90
42147;DHT22;27815;43.410;11.852;2022-09-03T11:08:00;22.10;72.40
42147;DHT22;27815;43.410;11.852;2022-09-03T11:12:09;22.10;72.30
42147;DHT22;27815;43.410;11.852;2022-09-03T11:16:25;22.10;72.80
42147;DHT22;27815;43.410;11.852;2022-09-03T11:20:31;22.10;72.30
42147;DHT22;27815;43.410;11.852;2022-09-03T11:24:38;22.00;72.40
42147;DHT22;27815;43.410;11.852;2022-09-03T11:28:53;22.00;72.20
42147;DHT22;27815;43.410;11.852;2022-09-03T11:33:04;21.90;72.30
42147;DHT22;27815;43.410;11.852;2022-09-03T11:37:19;22.00;71.90
42147;DHT22;27815;43.410;11.852;2022-09-03T11:41:27;22.00;72.30
42147;DHT22;27815;43.410;11.852;2022-09-03T11:45:35;22.00;72.10
42147;DHT22;27815;43.410;11.852;2022-09-03T11:49:47;22.00;72.10
42147;DHT22;27815;43.410;11.852;2022-09-03T11:53:55;22.00;72.70
42147;DHT22;27815;43.410;11.852;2022-09-03T12:02:31;21.80;72.20
42147;DHT22;27815;43.410;11.852;2022-09-03T12:07:24;21.70;73.00
42147;DHT22;27815;43.410;11.852;2022-09-03T12:11:39;21.60;72.40
42147;DHT22;27815;43.410;11.852;2022-09-03T12:16:21;21.60;73.60
42147;DHT22;27815;43.410;11.852;2022-09-03T12:20:27;21.70;72.70
42147;DHT22;27815;43.410;11.852;2022-09-03T12:24:31;21.80;73.30
42147;DHT22;27815;43.410;11.852;2022-09-03T12:28:41;22.00;73.10
42147;DHT22;27815;43.410;11.852;2022-09-03T12:32:46;22.10;72.30
42147;DHT22;27815;43.410;11.852;2022-09-03T12:36:52;22.30;71.20
42147;DHT22;27815;43.410;11.852;2022-09-03T12:40:58;22.50;70.20
42147;DHT22;27815;43.410;11.852;2022-09-03T12:45:23;22.80;70.50
42147;DHT22;27815;43.410;11.852;2022-09-03T12:49:31;23.00;69.70
42147;DHT22;27815;43.410;11.852;2022-09-03T12:53:35;23.20;68.70
42147;DHT22;27815;43.410;11.852;2022-09-03T12:57:46;23.40;67.70
42147;DHT22;27815;43.410;11.852;2022-09-03T13:01:58;23.50;68.90
42147;DHT22;27815;43.410;11.852;2022-09-03T13:06:11;23.50;69.60
42147;DHT22;27815;43.410;11.852;2022-09-03T13:10:27;23.70;69.90
42147;DHT22;27815;43.410;11.852;2022-09-03T13:14:46;23.80;69.20
42147;DHT22;27815;43.410;11.852;2022-09-03T13:23:55;23.90;69.90
42147;DHT22;27815;43.410;11.852;2022-09-03T13:36:53;24.70;66.30
42147;DHT22;27815;43.410;11.852;2022-09-03T13:41:02;25.00;65.30
42147;DHT22;27815;43.410;11.852;2022-09-03T13:54:05;25.40;64.80
42147;DHT22;27815;43.410;11.852;2022-09-03T14:07:12;25.80;60.20
42147;DHT22;27815;43.410;11.852;2022-09-03T14:11:31;25.70;59.20
42147;DHT22;27815;43.410;11.852;2022-09-03T14:15:49;25.60;59.60
42147;DHT22;27815;43.410;11.852;2022-09-03T14:28:42;25.30;60.00
42147;DHT22;27815;43.410;11.852;2022-09-03T14:33:14;25.30;60.80
42147;DHT22;27815;43.410;11.852;2022-09-03T14:42:09;25.20;60.80
42147;DHT22;27815;43.410;11.852;2022-09-03T14:51:08;25.20;61.60
42147;DHT22;27815;43.410;11.852;2022-09-03T15:04:45;25.20;61.20
42147;DHT22;27815;43.410;11.852;2022-09-03T15:09:01;25.30;61.20
42147;DHT22;27815;43.410;11.852;2022-09-03T15:13:14;25.50;61.50
42147;DHT22;27815;43.410;11.852;2022-09-03T15:39:32;26.00;57.90
42147;DHT22;27815;43.410;11.852;2022-09-03T15:43:36;26.00;58.20
42147;DHT22;27815;43.410;11.852;2022-09-03T15:47:49;26.20;58.30
42147;DHT22;27815;43.410;11.852;2022-09-03T15:56:27;26.50;57.90
42147;DHT22;27815;43.410;11.852;2022-09-03T16:00:31;26.50;57.50
42147;DHT22;27815;43.410;11.852;2022-09-03T16:09:02;26.50;56.20
42147;DHT22;27815;43.410;11.852;2022-09-03T16:13:28;26.20;56.10
42147;DHT22;27815;43.410;11.852;2022-09-03T16:22:29;25.90;57.00
42147;DHT22;27815;43.410;11.852;2022-09-03T16:26:56;25.70;57.50
42147;DHT22;27815;43.410;11.852;2022-09-03T16:31:29;25.50;57.90
42147;DHT22;27815;43.410;11.852;2022-09-03T16:40:26;25.10;59.10
42147;DHT22;27815;43.410;11.852;2022-09-03T16:58:14;24.50;61.20
42147;DHT22;27815;43.410;11.852;2022-09-03T17:02:46;24.30;61.90
42147;DHT22;27815;43.410;11.852;2022-09-03T17:07:05;24.20;62.10
42147;DHT22;27815;43.410;11.852;2022-09-03T17:11:42;24.10;62.80
42147;DHT22;27815;43.410;11.852;2022-09-03T17:24:41;24.00;63.00
42147;DHT22;27815;43.410;11.852;2022-09-03T17:28:57;23.90;63.20
42147;DHT22;27815;43.410;11.852;2022-09-03T17:55:39;23.70;64.80
42147;DHT22;27815;43.410;11.852;2022-09-03T18:03:58;23.50;65.70
42147;DHT22;27815;43.410;11.852;2022-09-03T18:17:36;23.10;65.00
42147;DHT22;27815;43.410;11.852;2022-09-03T18:21:40;23.00;64.80
42147;DHT22;27815;43.410;11.852;2022-09-03T18:26:10;22.90;65.80
42147;DHT22;27815;43.410;11.852;2022-09-03T18:30:33;22.80;65.20
42147;DHT22;27815;43.410;11.852;2022-09-03T18:34:54;22.60;65.80
42147;DHT22;27815;43.410;11.852;2022-09-03T18:39:34;22.40;65.90
42147;DHT22;27815;43.410;11.852;2022-09-03T18:49:22;22.10;66.30
42147;DHT22;27815;43.410;11.852;2022-09-03T18:58:27;22.00;67.10
42147;DHT22;27815;43.410;11.852;2022-09-03T19:03:15;21.80;67.20
42147;DHT22;27815;43.410;11.852;2022-09-03T19:07:54;21.60;67.80
42147;DHT22;27815;43.410;11.852;2022-09-03T19:17:53;21.40;68.60
42147;DHT22;27815;43.410;11.852;2022-09-03T19:22:10;21.40;68.00
42147;DHT22;27815;43.410;11.852;2022-09-03T19:31:57;21.30;68.10
42147;DHT22;27815;43.410;11.852;2022-09-03T19:50:20;20.80;70.40
42147;DHT22;27815;43.410;11.852;2022-09-03T19:54:42;20.90;69.80
42147;DHT22;27815;43.410;11.852;2022-09-03T19:59:12;20.80;70.30
42147;DHT22;27815;43.410;11.852;2022-09-03T20:03:40;20.80;70.60
42147;DHT22;27815;43.410;11.852;2022-09-03T20:08:02;20.70;70.70
42147;DHT22;27815;43.410;11.852;2022-09-03T20:12:27;20.60;71.00
42147;DHT22;27815;43.410;11.852;2022-09-03T20:20:54;20.60;71.40
42147;DHT22;27815;43.410;11.852;2022-09-03T20:25:22;20.60;71.70
42147;DHT22;27815;43.410;11.852;2022-09-03T20:51:15;20.40;72.00
42147;DHT22;27815;43.410;11.852;2022-09-03T21:00:06;20.30;72.40
42147;DHT22;27815;43.410;11.852;2022-09-03T21:09:07;20.30;71.80
42147;DHT22;27815;43.410;11.852;2022-09-03T21:13:17;20.20;72.50
42147;DHT22;27815;43.410;11.852;2022-09-03T21:26:06;20.10;73.30
42147;DHT22;27815;43.410;11.852;2022-09-03T21:30:17;20.00;73.30
42147;DHT22;27815;43.410;11.852;2022-09-03T21:34:43;20.00;73.50
42147;DHT22;27815;43.410;11.852;2022-09-03T21:39:02;20.00;73.20
42147;DHT22;27815;43.410;11.852;2022-09-03T21:43:11;20.00;74.00
42147;DHT22;27815;43.410;11.852;2022-09-03T21:47:17;20.00;74.10
42147;DHT22;27815;43.410;11.852;2022-09-03T21:51:46;20.00;74.10
42147;DHT22;27815;43.410;11.852;2022-09-03T22:00:18;20.00;74.40
42147;DHT22;27815;43.410;11.852;2022-09-03T22:04:30;20.00;74.30
42147;DHT22;27815;43.410;11.852;2022-09-03T22:08:44;20.00;74.30
42147;DHT22;27815;43.410;11.852;2022-09-03T22:17:36;20.10;73.90
42147;DHT22;27815;43.410;11.852;2022-09-03T22:21:59;20.10;73.70
42147;DHT22;27815;43.410;11.852;2022-09-03T22:26:13;20.10;74.20
42147;DHT22;27815;43.410;11.852;2022-09-03T22:30:22;20.00;74.40
42147;DHT22;27815;43.410;11.852;2022-09-03T22:39:06;20.00;74.10
42147;DHT22;27815;43.410;11.852;2022-09-03T22:48:45;19.90;74.40
42147;DHT22;27815;43.410;11.852;2022-09-03T22:52:44;19.80;73.90
42147;DHT22;27815;43.410;11.852;2022-09-03T22:56:48;19.70;74.30
42147;DHT22;27815;43.410;11.852;2022-09-03T23:01:05;19.50;75.00
42147;DHT22;27815;43.410;11.852;2022-09-03T23:09:37;19.60;75.40
42147;DHT22;27815;43.410;11.852;2022-09-03T23:13:46;19.60;75.50
42147;DHT22;27815;43.410;11.852;2022-09-03T23:17:59;19.60;75.30
42147;DHT22;27815;43.410;11.852;2022-09-03T23:22:10;19.50;75.40
42147;DHT22;27815;43.410;11.852;2022-09-03T23:30:24;19.40;75.60
42147;DHT22;27815;43.410;11.852;2022-09-03T23:34:28;19.40;75.50
42147;DHT22;27815;43.410;11.852;2022-09-03T23:52:02;19.30;75.90
